Gordon, West Virginia
Current Conditions -  °F | °C
As of 1:54 PM on Monday 20 Oct 2014 (Local Time) from KCRW Reporting Station
Light Rain Light Rain  
Wind Chill: 55°   Ceiling: 8500
Heat Index: 55°   Visibility: 10mi
Dew Point: 48°   Wind: 6mph
Humidity: 77%   Direction: 160°SSE
Pressure: 29.97"   Gusts: NA
Location:  37.99°N, 81.7°W
Report Text: KCRW 201754Z 16005KT 10SM -RA FEW070 BKN085 BKN140 OVC300 13/09 A2997 RMK AO2 DZB27E29RAB29 PRESFR SLP149 P0001 60001 T01280089 10139 20017 58030
Loading
Personal Weather Stations






























Interactive Weather Map
Tropical Storm Tracking
New forecast layout! Learn more

10-Day Weather Forecast

Advertisements
Track Severe Weather on mobile